Time;durP1;ratioP1;P1;durP2;ratioP2;P2;SDS_P1;SDS_P2;PMS_P1;PMS_P2;Temp;Humidity;BMP_temperature;BMP_pressure;BME280_temperature;BME280_humidity;BME280_pressure;Samples;Min_cycle;Max_cycle;Signal;HPM_P1;HPM_P2
2021/04/18 00:06:24;;;;;;;;;;;;;;;;;;;;;
2021/04/18 00:09:54;;;;;;;;;;;;;;;;;;;;;
2021/04/18 00:21:06;;;;;;;8.10;2.70;;;15.00;52.00;;;;;;6034832;23;20492;-75
2021/04/18 00:35:45;;;;;;;4.57;2.00;;;15.00;52.10;;;;;;6067167;23;20427;-75
2021/04/18 00:46:57;;;;;;;6.70;2.75;;;14.90;52.00;;;;;;5928898;24;20024;-75
2021/04/18 00:50:13;;;;;;;;;;;;;;;;;;;;;
2021/04/18 00:54:07;;;;;;;5.22;2.50;;;14.90;52.00;;;;;;5999782;23;20022;-75
2021/04/18 00:57:32;;;;;;;5.03;2.55;;;14.90;52.00;;;;;;6158686;23;20087;-75
2021/04/18 01:00:39;;;;;;;6.85;2.53;;;14.90;52.00;;;;;;6196863;23;20020;-75
2021/04/18 01:03:55;;;;;;;6.70;2.63;;;14.80;51.90;;;;;;6224972;23;20405;-75
2021/04/18 01:06:41;;;;;;;6.85;2.58;;;14.80;51.90;;;;;;6192435;23;20051;-75
2021/04/18 01:17:07;;;;;;;5.95;2.33;;;14.80;52.00;;;;;;6247602;23;20098;-75
2021/04/18 01:20:40;;;;;;;8.00;2.47;;;14.80;52.00;;;;;;6199857;23;20290;-75
2021/04/18 01:23:53;;;;;;;6.18;2.80;;;14.80;52.00;;;;;;6223973;23;20082;-75
2021/04/18 01:29:56;;;;;;;7.50;2.80;;;14.70;52.00;;;;;;6217806;23;20024;-75
2021/04/18 01:32:57;;;;;;;;;;;;;;;;;;;;;
2021/04/18 01:35:46;;;;;;;8.82;3.30;;;14.70;52.00;;;;;;6220978;23;20008;-75
2021/04/18 01:38:46;;;;;;;6.15;2.10;;;14.70;51.90;;;;;;6194803;23;20409;-75
2021/04/18 01:42:15;;;;;;;9.00;2.75;;;14.80;52.00;;;;;;6224772;23;20013;-75
2021/04/18 01:44:59;;;;;;;7.53;2.95;;;14.70;52.00;;;;;;6224614;23;20016;-75
2021/04/18 01:48:03;;;;;;;9.50;2.78;;;14.70;52.00;;;;;;6200357;23;20008;-75
2021/04/18 01:50:58;;;;;;;6.07;2.72;;;14.70;52.00;;;;;;6224531;23;20023;-75
2021/04/18 01:54:01;;;;;;;5.85;2.55;;;14.70;52.00;;;;;;6223619;23;20035;-75
2021/04/18 01:56:52;;;;;;;6.82;2.78;;;14.70;51.90;;;;;;6196849;23;20008;-75
2021/04/18 01:59:30;;;;;;;6.68;2.55;;;14.70;51.90;;;;;;6197986;23;20098;-75
2021/04/18 02:02:19;;;;;;;7.93;2.80;;;14.70;52.00;;;;;;6198164;23;20078;-75
2021/04/18 02:05:08;;;;;;;7.70;2.50;;;14.70;52.30;;;;;;6224576;23;20030;-75
2021/04/18 02:07:56;;;;;;;6.55;2.72;;;14.70;51.90;;;;;;6197467;23;20012;-74
2021/04/18 02:10:38;;;;;;;6.50;3.13;;;14.60;51.90;;;;;;6196155;23;20087;-75
2021/04/18 02:13:44;;;;;;;5.15;1.92;;;14.70;52.00;;;;;;6198648;23;20286;-75
2021/04/18 02:17:10;;;;;;;4.90;2.28;;;14.50;51.90;;;;;;6199038;23;20014;-75
2021/04/18 02:23:07;;;;;;;5.95;2.30;;;14.60;52.00;;;;;;6099320;23;20026;-75
2021/04/18 02:26:24;;;;;;;6.20;2.50;;;14.60;52.00;;;;;;6097705;23;20026;-75
2021/04/18 02:29:17;;;;;;;6.40;2.53;;;14.60;52.00;;;;;;6154975;23;20022;-75
2021/04/18 02:32:02;;;;;;;;;;;14.50;52.00;;;;;;6108017;23;20104;-75
2021/04/18 02:34:48;;;;;;;6.35;2.40;;;14.60;52.10;;;;;;6148677;23;19927;-75
2021/04/18 02:37:40;;;;;;;6.00;2.08;;;14.50;52.10;;;;;;6168508;23;20031;-75
2021/04/18 02:40:35;;;;;;;5.50;2.50;;;14.60;52.10;;;;;;6194936;23;20059;-75
2021/04/18 02:43:24;;;;;;;6.20;2.42;;;14.50;52.00;;;;;;6151828;23;20017;-75
2021/04/18 02:46:03;;;;;;;5.20;2.55;;;14.50;52.00;;;;;;6169313;23;20016;-75
2021/04/18 02:48:49;;;;;;;5.63;2.15;;;14.50;52.00;;;;;;6170520;23;20422;-75
2021/04/18 02:51:33;;;;;;;6.47;2.45;;;14.50;52.10;;;;;;6195519;23;20020;-75
2021/04/18 02:54:21;;;;;;;6.53;2.58;;;14.50;52.10;;;;;;6168344;23;20019;-75
2021/04/18 02:57:01;;;;;;;5.85;2.13;;;14.60;52.20;;;;;;6164017;23;20013;-75
2021/04/18 02:59:55;;;;;;;7.40;2.35;;;14.50;52.10;;;;;;6168252;23;20012;-75
2021/04/18 03:02:38;;;;;;;5.82;2.70;;;14.50;52.00;;;;;;6191913;23;20039;-75
2021/04/18 03:05:23;;;;;;;4.90;2.17;;;14.50;52.10;;;;;;6143504;23;20048;-75
2021/04/18 03:08:03;;;;;;;5.35;2.45;;;14.50;52.10;;;;;;6165209;23;20096;-75
2021/04/18 03:10:34;;;;;;;6.18;2.20;;;14.50;52.00;;;;;;6167687;23;20009;-75
2021/04/18 03:13:48;;;;;;;5.60;2.17;;;14.50;52.10;;;;;;6196155;23;20318;-75
2021/04/18 03:16:36;;;;;;;4.57;2.03;;;14.40;52.00;;;;;;6196122;23;20016;-75
2021/04/18 03:19:48;;;;;;;4.78;2.20;;;14.40;52.00;;;;;;6168967;23;20017;-75
2021/04/18 03:22:28;;;;;;;7.90;2.60;;;14.40;52.00;;;;;;6168332;23;20012;-75
2021/04/18 03:25:23;;;;;;;5.20;2.42;;;14.40;52.00;;;;;;6159023;23;20017;-75
2021/04/18 03:28:21;;;;;;;4.82;2.05;;;14.40;52.00;;;;;;6170272;23;20087;-75
2021/04/18 03:31:27;;;;;;;6.03;2.78;;;14.40;52.00;;;;;;6166622;23;20008;-75
2021/04/18 03:34:01;;;;;;;4.57;2.17;;;14.40;51.90;;;;;;6166361;23;20314;-75
2021/04/18 03:36:54;;;;;;;4.75;2.10;;;14.30;51.80;;;;;;6164557;23;20013;-75
2021/04/18 03:39:42;;;;;;;6.90;2.58;;;14.40;51.90;;;;;;6163912;23;20032;-75
2021/04/18 03:42:38;;;;;;;5.18;2.00;;;14.30;51.80;;;;;;6166589;23;20054;-75
2021/04/18 03:45:21;;;;;;;4.68;2.40;;;14.40;51.90;;;;;;6168592;23;20031;-75
2021/04/18 03:47:56;;;;;;;5.50;2.58;;;14.30;51.90;;;;;;6167543;23;20279;-75
2021/04/18 03:50:25;;;;;;;7.03;2.20;;;14.30;51.90;;;;;;6164780;23;20378;-75
2021/04/18 03:53:06;;;;;;;3.88;2.08;;;14.30;51.90;;;;;;6194914;23;20032;-75
2021/04/18 03:55:42;;;;;;;5.15;2.20;;;14.30;51.90;;;;;;6167734;23;20070;-75
2021/04/18 03:58:14;;;;;;;3.55;2.03;;;14.30;51.90;;;;;;6168923;23;20427;-75
2021/04/18 04:00:45;;;;;;;6.55;2.17;;;14.30;51.90;;;;;;6167645;23;20024;-75
2021/04/18 04:03:11;;;;;;;5.38;2.08;;;14.30;51.90;;;;;;6167345;23;20405;-75
2021/04/18 04:05:49;;;;;;;5.57;2.10;;;14.30;51.90;;;;;;6168501;23;20013;-75
2021/04/18 04:08:27;;;;;;;4.07;2.05;;;14.30;52.00;;;;;;6166354;23;20016;-74
2021/04/18 04:11:00;;;;;;;4.35;2.15;;;14.20;51.90;;;;;;6168601;23;20021;-75
2021/04/18 04:13:29;;;;;;;4.03;1.80;;;14.30;52.00;;;;;;6167755;23;20092;-75
2021/04/18 04:15:55;;;;;;;5.72;2.53;;;14.20;52.00;;;;;;6167382;23;20019;-75
2021/04/18 04:18:26;;;;;;;5.05;2.33;;;14.20;51.90;;;;;;6167699;23;20009;-75
2021/04/18 04:20:57;;;;;;;6.07;2.70;;;14.20;51.90;;;;;;6166327;23;20012;-75
2021/04/18 04:23:32;;;;;;;5.40;2.30;;;14.20;52.00;;;;;;6192893;23;20456;-74
2021/04/18 04:26:12;;;;;;;5.60;1.77;;;14.20;52.00;;;;;;6175050;23;20441;-75
2021/04/18 04:28:40;;;;;;;3.17;1.80;;;14.20;52.00;;;;;;6222795;23;20031;-75
2021/04/18 04:31:12;;;;;;;10.80;3.30;;;14.20;52.20;;;;;;6222377;23;20342;-76
2021/04/18 04:33:38;;;;;;;5.13;2.20;;;14.10;52.50;;;;;;6258425;22;20317;-75
2021/04/18 04:36:05;;;;;;;12.48;2.30;;;14.10;52.90;;;;;;6221370;23;20016;-73
2021/04/18 04:38:56;;;;;;;8.43;2.10;;;14.10;53.30;;;;;;6257206;23;20008;-75
2021/04/18 04:41:28;;;;;;;4.97;1.83;;;14.10;53.70;;;;;;6258166;22;20043;-80
2021/04/18 04:43:54;;;;;;;7.32;2.33;;;14.20;53.90;;;;;;6258238;22;20008;-78
2021/04/18 04:46:24;;;;;;;10.65;2.92;;;14.40;54.30;;;;;;6258971;22;20016;-80
2021/04/18 04:48:49;;;;;;;9.38;2.47;;;14.60;54.70;;;;;;6247337;23;20012;-79
2021/04/18 04:51:21;;;;;;;9.93;2.40;;;14.90;54.90;;;;;;6247329;23;20283;-78
2021/04/18 04:53:47;;;;;;;13.20;2.20;;;15.10;55.00;;;;;;6246932;23;20313;-79
2021/04/18 04:56:13;;;;;;;18.30;2.90;;;15.20;54.80;;;;;;6258295;22;20016;-75
2021/04/18 04:58:38;;;;;;;14.93;2.72;;;15.50;55.50;;;;;;6258070;22;20019;-78
2021/04/18 05:01:04;;;;;;;12.88;2.60;;;15.60;55.80;;;;;;6247915;22;20016;-76
2021/04/18 05:03:30;;;;;;;11.02;2.65;;;15.80;56.10;;;;;;6257744;22;20016;-78
2021/04/18 05:06:05;;;;;;;11.43;2.78;;;16.00;56.60;;;;;;6257527;23;20090;-76
2021/04/18 05:08:31;;;;;;;13.82;3.42;;;16.00;56.50;;;;;;6245539;23;20012;-76
2021/04/18 05:10:57;;;;;;;12.52;2.83;;;16.10;56.50;;;;;;6258132;22;20023;-79
2021/04/18 05:13:23;;;;;;;10.13;2.40;;;16.10;56.90;;;;;;6258163;22;20027;-74
2021/04/18 05:15:48;;;;;;;9.80;2.78;;;16.20;57.10;;;;;;6247908;22;20012;-79
2021/04/18 05:18:19;;;;;;;12.20;2.50;;;16.20;57.30;;;;;;6247426;23;20432;-75
2021/04/18 05:20:59;;;;;;;13.73;2.20;;;16.20;57.60;;;;;;6222469;23;20020;-75
2021/04/18 05:23:33;;;;;;;8.55;2.33;;;16.30;57.80;;;;;;6221360;23;20016;-76
2021/04/18 05:26:09;;;;;;;9.70;1.98;;;16.40;58.00;;;;;;6244972;23;20020;-76
2021/04/18 05:28:43;;;;;;;11.65;2.10;;;16.60;58.20;;;;;;6246807;23;20023;-75
2021/04/18 05:31:09;;;;;;;15.80;2.50;;;16.70;58.10;;;;;;6247417;23;20028;-76
2021/04/18 05:33:35;;;;;;;9.68;2.22;;;16.80;58.00;;;;;;6246741;23;20408;-75
2021/04/18 05:36:11;;;;;;;11.18;2.25;;;16.70;52.10;;;;;;6256954;23;20091;-73
2021/04/18 06:01:58;;;;;;;6.60;1.65;;;17.30;56.70;;;;;;5954389;24;20058;-74
2021/04/18 06:04:27;;;;;;;4.97;1.55;;;17.40;56.40;;;;;;5961649;24;20021;-74
2021/04/18 06:07:01;;;;;;;7.82;1.50;;;17.50;56.10;;;;;;6101203;23;20052;-74
2021/04/18 06:09:30;;;;;;;7.32;1.40;;;17.60;56.00;;;;;;6101232;23;20025;-74
2021/04/18 06:11:57;;;;;;;16.08;1.88;;;17.70;56.30;;;;;;6103349;23;20026;-77
2021/04/18 06:14:23;;;;;;;11.73;1.67;;;17.70;56.10;;;;;;6137730;23;20037;-78
2021/04/18 06:16:49;;;;;;;6.88;1.67;;;17.70;56.50;;;;;;6134661;23;20478;-76
2021/04/18 06:19:16;;;;;;;10.75;1.35;;;17.80;55.80;;;;;;6259833;23;20016;-76
2021/04/18 06:21:42;;;;;;;4.65;1.40;;;17.90;55.60;;;;;;6259699;23;20020;-76
2021/04/18 06:24:09;;;;;;;6.53;1.63;;;18.00;55.50;;;;;;6259505;23;20095;-77
2021/04/18 06:26:35;;;;;;;4.85;1.20;;;18.00;55.50;;;;;;6255053;23;20027;-77
2021/04/18 06:29:01;;;;;;;6.18;1.67;;;18.00;55.40;;;;;;6259561;23;20345;-77
2021/04/18 06:31:27;;;;;;;5.55;1.30;;;18.00;55.60;;;;;;6233523;23;20016;-77
2021/04/18 06:33:53;;;;;;;4.55;1.08;;;17.90;55.50;;;;;;6259563;23;20025;-77
2021/04/18 06:36:19;;;;;;;3.13;1.27;;;18.00;55.50;;;;;;6259339;23;20149;-78
2021/04/18 06:38:44;;;;;;;5.60;1.27;;;18.00;55.40;;;;;;6259743;23;20069;-77
2021/04/18 06:41:15;;;;;;;8.63;1.50;;;18.00;55.40;;;;;;6259643;23;20026;-77
2021/04/18 06:52:15;;;;;;;7.53;1.90;;;17.80;55.90;;;;;;6040484;23;20019;-75
2021/04/18 06:58:35;;;;;;;11.38;2.25;;;17.70;56.60;;;;;;6116232;23;20083;-78
2021/04/18 07:01:01;;;;;;;7.78;1.55;;;17.30;55.60;;;;;;6196591;23;20028;-76
2021/04/18 07:03:27;;;;;;;7.82;1.67;;;17.30;56.30;;;;;;6196761;23;20017;-79
2021/04/18 07:05:58;;;;;;;7.00;1.90;;;17.40;56.70;;;;;;6184191;23;20310;-80
2021/04/18 07:08:29;;;;;;;15.27;2.08;;;17.50;57.00;;;;;;6258890;23;20078;-74
2021/04/18 07:11:15;;;;;;;8.77;2.20;;;17.60;57.10;;;;;;6259901;23;20357;-79
2021/04/18 07:13:43;;;;;;;11.98;2.35;;;17.60;57.00;;;;;;6249100;23;20372;-76
2021/04/18 07:16:22;;;;;;;6.20;1.50;;;17.60;56.80;;;;;;6232572;23;20030;-75
2021/04/18 07:18:48;;;;;;;13.38;1.88;;;17.70;57.20;;;;;;6259305;23;20278;-78
2021/04/18 07:21:14;;;;;;;9.50;2.63;;;17.70;57.20;;;;;;6222935;23;20095;-78
2021/04/18 07:23:39;;;;;;;9.52;2.50;;;17.70;57.50;;;;;;6232551;23;20015;-75
2021/04/18 07:26:27;;;;;;;13.30;2.28;;;17.70;57.60;;;;;;6256614;23;20016;-76
2021/04/18 07:29:16;;;;;;;11.73;3.10;;;17.80;58.20;;;;;;6233218;23;20026;-74
2021/04/18 07:31:43;;;;;;;9.93;2.80;;;17.80;58.20;;;;;;6249324;22;20282;-77
2021/04/18 07:34:15;;;;;;;11.20;3.60;;;17.70;56.50;;;;;;6259355;22;20014;-77
2021/04/18 07:37:19;;;;;;;10.50;3.35;;;17.60;56.10;;;;;;6259172;22;20012;-76
2021/04/18 07:40:08;;;;;;;8.88;2.10;;;17.40;54.20;;;;;;6257600;23;20012;-75
2021/04/18 07:42:38;;;;;;;13.35;2.88;;;17.40;60.90;;;;;;6259217;22;20413;-77
2021/04/18 07:45:10;;;;;;;12.00;2.85;;;17.50;60.80;;;;;;6258690;22;20088;-76
2021/04/18 07:48:12;;;;;;;14.55;3.17;;;17.60;60.80;;;;;;6257822;23;20496;-76
2021/04/18 07:50:42;;;;;;;19.30;3.13;;;17.70;60.60;;;;;;6243503;22;20019;-77
2021/04/18 07:53:08;;;;;;;14.85;3.75;;;17.70;60.00;;;;;;6257819;23;20276;-77
2021/04/18 07:55:35;;;;;;;11.07;3.38;;;17.80;59.60;;;;;;6257850;23;20008;-76
2021/04/18 07:58:02;;;;;;;11.48;3.63;;;17.80;59.10;;;;;;6249081;22;20046;-75
2021/04/18 08:00:47;;;;;;;11.75;3.10;;;17.90;59.50;;;;;;6259060;22;20016;-77
2021/04/18 08:04:16;;;;;;;10.98;2.90;;;18.00;59.30;;;;;;6224093;23;20019;-76
2021/04/18 08:06:43;;;;;;;11.68;4.15;;;18.00;59.00;;;;;;6156332;23;20025;-76
2021/04/18 08:09:24;;;;;;;13.27;5.07;;;18.00;58.70;;;;;;6166273;23;20288;-75
2021/04/18 08:12:10;;;;;;;10.85;4.00;;;17.90;57.10;;;;;;6214010;22;20032;-76
2021/04/18 08:14:47;;;;;;;9.95;4.07;;;17.90;56.10;;;;;;6246614;23;20039;-75
2021/04/18 08:17:17;;;;;;;12.38;4.32;;;17.80;55.70;;;;;;6259106;22;20016;-76
2021/04/18 08:19:57;;;;;;;9.75;3.92;;;17.80;56.00;;;;;;6257890;23;20016;-76
2021/04/18 08:22:23;;;;;;;10.77;3.55;;;17.70;56.10;;;;;;6257023;23;20012;-74
2021/04/18 08:25:12;;;;;;;10.68;3.40;;;17.70;56.60;;;;;;6258486;22;20008;-75
2021/04/18 08:28:12;;;;;;;10.82;3.60;;;17.70;57.00;;;;;;6247914;23;20015;-77
2021/04/18 08:31:07;;;;;;;6.78;3.55;;;17.60;57.90;;;;;;6247988;22;20063;-76
2021/04/18 08:33:43;;;;;;;9.60;3.78;;;17.60;57.30;;;;;;6257744;22;20027;-74
2021/04/18 08:36:19;;;;;;;10.48;3.63;;;17.50;56.80;;;;;;6258445;22;20345;-75
2021/04/18 08:38:49;;;;;;;9.13;3.55;;;17.50;56.30;;;;;;6246929;23;20087;-77
2021/04/18 08:41:18;;;;;;;14.25;3.58;;;17.40;56.20;;;;;;6247275;23;20125;-76
2021/04/18 08:43:47;;;;;;;7.97;4.05;;;17.40;56.00;;;;;;6222705;23;20012;-76
2021/04/18 08:46:20;;;;;;;9.05;3.28;;;17.30;56.00;;;;;;6247258;23;20016;-77
2021/04/18 08:48:46;;;;;;;7.90;3.30;;;17.30;56.00;;;;;;6223037;23;20081;-76
2021/04/18 08:51:12;;;;;;;7.25;2.95;;;17.20;56.10;;;;;;6257241;23;20022;-77
2021/04/18 08:53:57;;;;;;;6.55;3.00;;;17.20;56.20;;;;;;6258260;22;20083;-76
2021/04/18 08:56:42;;;;;;;7.75;2.67;;;17.20;56.20;;;;;;6247514;23;20016;-77
2021/04/18 08:59:13;;;;;;;5.55;2.70;;;17.20;56.60;;;;;;6246951;23;20012;-76
2021/04/18 09:01:39;;;;;;;6.65;3.17;;;17.10;56.90;;;;;;6222072;23;20043;-77
2021/04/18 09:04:10;;;;;;;7.22;2.70;;;17.10;57.40;;;;;;6222248;23;20094;-76
2021/04/18 09:06:36;;;;;;;5.50;2.58;;;17.00;57.60;;;;;;6221981;23;20019;-76
2021/04/18 09:09:06;;;;;;;6.38;2.08;;;17.00;57.90;;;;;;6222823;23;20037;-76
2021/04/18 09:11:41;;;;;;;3.70;2.13;;;17.00;58.10;;;;;;6247251;23;20012;-77
2021/04/18 09:14:06;;;;;;;5.75;2.47;;;17.00;58.30;;;;;;6257455;23;20016;-76
2021/04/18 09:16:35;;;;;;;4.25;2.60;;;16.90;58.50;;;;;;6221987;23;20016;-77
2021/04/18 09:19:31;;;;;;;4.82;2.13;;;16.90;58.60;;;;;;6246868;23;20016;-76
2021/04/18 09:22:09;;;;;;;4.57;2.20;;;16.90;58.90;;;;;;6247066;23;20047;-75
2021/04/18 09:24:54;;;;;;;6.78;1.98;;;16.90;59.00;;;;;;6221830;23;20309;-76
2021/04/18 09:27:35;;;;;;;5.10;2.35;;;16.80;59.10;;;;;;6221281;23;20495;-77
2021/04/18 09:30:10;;;;;;;3.30;1.73;;;16.90;59.30;;;;;;6222539;23;20303;-76
2021/04/18 09:32:39;;;;;;;4.30;1.90;;;16.80;59.20;;;;;;6247430;23;20305;-77
2021/04/18 09:35:09;;;;;;;3.70;1.80;;;16.80;59.30;;;;;;6257202;23;20008;-76
2021/04/18 09:37:54;;;;;;;6.63;1.80;;;16.80;59.40;;;;;;6246695;23;20091;-76
2021/04/18 09:40:21;;;;;;;3.75;1.60;;;16.80;59.60;;;;;;6247681;23;20038;-76
2021/04/18 09:42:49;;;;;;;4.63;1.92;;;16.80;59.60;;;;;;6257600;23;20018;-76
2021/04/18 09:45:20;;;;;;;4.40;1.73;;;16.70;59.90;;;;;;6221681;23;20019;-77
2021/04/18 09:47:52;;;;;;;4.45;1.73;;;16.80;59.70;;;;;;6257160;23;20011;-76
2021/04/18 09:50:38;;;;;;;3.38;1.50;;;16.80;59.80;;;;;;6246843;23;20019;-75
2021/04/18 09:53:29;;;;;;;3.05;1.77;;;16.80;59.90;;;;;;6246254;23;20081;-76
2021/04/18 09:56:03;;;;;;;6.45;2.15;;;16.70;59.70;;;;;;6257233;23;20083;-77
2021/04/18 09:58:41;;;;;;;2.38;1.67;;;16.70;59.80;;;;;;6221398;23;20058;-76
2021/04/18 10:01:35;;;;;;;4.32;1.95;;;16.70;59.80;;;;;;6247200;23;20490;-76
2021/04/18 10:04:02;;;;;;;5.65;1.95;;;16.70;59.90;;;;;;6221750;23;20020;-76
2021/04/18 10:06:46;;;;;;;2.70;1.45;;;16.70;59.70;;;;;;6221560;23;20020;-76
2021/04/18 10:09:13;;;;;;;3.13;1.52;;;16.70;59.80;;;;;;6221762;23;20020;-76
2021/04/18 10:11:39;;;;;;;3.38;1.67;;;16.70;59.80;;;;;;6257271;23;20012;-78
2021/04/18 10:14:05;;;;;;;3.22;1.83;;;16.70;59.80;;;;;;6247597;23;20023;-77
2021/04/18 10:16:36;;;;;;;3.53;1.63;;;16.70;59.80;;;;;;6247563;23;20019;-77
2021/04/18 10:19:25;;;;;;;4.43;1.40;;;16.60;59.70;;;;;;6246959;23;20409;-76
2021/04/18 10:22:08;;;;;;;3.38;1.60;;;16.60;59.70;;;;;;6246140;23;20026;-76
2021/04/18 10:24:45;;;;;;;2.30;1.20;;;16.70;59.80;;;;;;6246747;23;20019;-77
2021/04/18 10:27:13;;;;;;;2.42;1.23;;;16.60;59.70;;;;;;6249676;23;20039;-76
2021/04/18 10:29:40;;;;;;;2.58;1.50;;;16.60;59.70;;;;;;6246688;23;20023;-77
2021/04/18 10:32:07;;;;;;;1.48;1.20;;;16.60;59.60;;;;;;6221290;23;20048;-76
2021/04/18 10:34:33;;;;;;;2.67;1.52;;;16.60;59.70;;;;;;6247070;23;20012;-76
2021/04/18 10:36:59;;;;;;;2.75;1.40;;;16.60;59.70;;;;;;6246823;23;20012;-76
2021/04/18 10:39:25;;;;;;;4.25;1.42;;;16.60;59.70;;;;;;6246397;23;20095;-75
2021/04/18 10:41:51;;;;;;;2.00;1.20;;;16.60;59.60;;;;;;6221564;23;20054;-76
2021/04/18 10:44:18;;;;;;;3.08;1.33;;;16.60;59.60;;;;;;6246645;23;20016;-76
2021/04/18 10:46:45;;;;;;;2.17;1.60;;;16.60;59.60;;;;;;6246628;23;20150;-76
2021/04/18 10:49:12;;;;;;;2.30;1.60;;;16.60;59.70;;;;;;6221113;23;20023;-77
2021/04/18 10:51:38;;;;;;;1.95;1.40;;;16.60;59.60;;;;;;6256606;23;20012;-76
2021/04/18 10:54:04;;;;;;;3.17;1.23;;;16.60;59.60;;;;;;6257012;23;20078;-77
2021/04/18 10:56:31;;;;;;;2.17;1.30;;;16.60;59.60;;;;;;6248108;22;20012;-76
2021/04/18 10:59:00;;;;;;;2.08;1.25;;;16.50;59.50;;;;;;6248410;23;20015;-76
2021/04/18 11:01:26;;;;;;;3.15;1.33;;;16.60;59.60;;;;;;6248676;23;20020;-76
2021/04/18 11:03:52;;;;;;;2.65;1.15;;;16.50;59.60;;;;;;6223260;23;20027;-76
2021/04/18 11:06:18;;;;;;;1.88;1.15;;;16.50;59.50;;;;;;6258906;23;20031;-76
2021/04/18 11:08:44;;;;;;;2.55;1.30;;;16.50;59.60;;;;;;6248836;23;20008;-77
2021/04/18 11:11:11;;;;;;;2.95;1.27;;;16.50;59.50;;;;;;6248585;23;20016;-77
2021/04/18 11:13:38;;;;;;;3.80;1.35;;;16.50;59.60;;;;;;6258594;23;20103;-76
2021/04/18 11:16:05;;;;;;;2.38;1.02;;;16.50;59.50;;;;;;6248335;23;20019;-76
2021/04/18 11:18:31;;;;;;;2.45;1.15;;;16.50;59.50;;;;;;6224004;23;20336;-76
2021/04/18 11:20:57;;;;;;;6.15;1.30;;;16.50;59.50;;;;;;6248391;23;20087;-76
2021/04/18 11:23:23;;;;;;;2.58;1.23;;;16.50;59.50;;;;;;6248146;23;20024;-76
2021/04/18 11:25:49;;;;;;;1.90;1.10;;;16.50;59.60;;;;;;6247482;23;20087;-76
2021/04/18 11:28:15;;;;;;;1.95;1.17;;;16.50;59.60;;;;;;6247936;23;20015;-76
2021/04/18 11:30:41;;;;;;;2.80;1.00;;;16.50;59.60;;;;;;6248029;23;20016;-77
2021/04/18 11:33:07;;;;;;;2.42;1.30;;;16.40;59.60;;;;;;6223755;23;20096;-77
2021/04/18 11:35:33;;;;;;;1.80;1.17;;;16.40;59.60;;;;;;6223854;23;20025;-77
2021/04/18 11:38:00;;;;;;;3.63;1.20;;;16.50;59.60;;;;;;6222847;23;20013;-76
2021/04/18 11:40:26;;;;;;;2.70;1.20;;;16.40;59.60;;;;;;6248158;23;20047;-77
2021/04/18 11:42:53;;;;;;;2.38;1.17;;;16.40;60.10;;;;;;6223738;23;20016;-77
2021/04/18 11:45:21;;;;;;;2.17;1.30;;;16.40;59.50;;;;;;6222630;23;20081;-77
2021/04/18 11:47:47;;;;;;;2.45;1.30;;;16.40;59.60;;;;;;6248062;23;20012;-76
2021/04/18 11:50:14;;;;;;;2.78;1.52;;;16.40;59.50;;;;;;6221878;23;20320;-77
2021/04/18 11:52:40;;;;;;;2.47;1.38;;;16.40;59.50;;;;;;6222647;23;20016;-76
2021/04/18 11:55:10;;;;;;;2.38;1.30;;;16.40;59.50;;;;;;6222561;23;20011;-76
2021/04/18 11:57:37;;;;;;;1.80;1.10;;;16.40;59.50;;;;;;6247899;23;20012;-76
2021/04/18 12:00:08;;;;;;;1.42;0.90;;;16.30;59.50;;;;;;6247625;23;20031;-76
2021/04/18 12:02:34;;;;;;;2.08;1.10;;;16.40;59.50;;;;;;6247642;23;20008;-76
2021/04/18 12:05:00;;;;;;;2.00;1.10;;;16.30;59.50;;;;;;6222579;23;20308;-76
2021/04/18 12:07:26;;;;;;;1.50;0.95;;;16.30;59.60;;;;;;6247881;23;20087;-76
2021/04/18 12:09:52;;;;;;;2.67;0.90;;;16.30;59.80;;;;;;6222353;23;20026;-77
2021/04/18 12:12:19;;;;;;;3.47;1.17;;;16.30;59.60;;;;;;6247802;23;20046;-76
2021/04/18 12:14:46;;;;;;;3.17;1.13;;;16.30;59.60;;;;;;6222818;23;20020;-76
2021/04/18 12:17:12;;;;;;;1.55;0.93;;;16.30;59.70;;;;;;6258086;23;20068;-76
2021/04/18 12:19:38;;;;;;;1.85;1.10;;;16.30;59.70;;;;;;6247831;23;20027;-76
2021/04/18 12:22:04;;;;;;;2.63;1.20;;;16.30;59.80;;;;;;6247768;23;20060;-76
2021/04/18 12:24:30;;;;;;;2.20;1.15;;;16.20;59.70;;;;;;6247682;23;20479;-77
2021/04/18 12:26:56;;;;;;;1.88;1.10;;;16.20;59.70;;;;;;6251793;23;20019;-77
2021/04/18 12:29:22;;;;;;;1.63;1.25;;;16.20;59.70;;;;;;6248427;23;20012;-76
2021/04/18 12:31:48;;;;;;;2.13;1.00;;;16.20;59.70;;;;;;6222337;23;20093;-76
2021/04/18 12:34:15;;;;;;;2.08;1.40;;;16.20;59.70;;;;;;6248335;23;20406;-76
2021/04/18 12:36:41;;;;;;;1.10;0.90;;;16.20;59.70;;;;;;6247524;23;20019;-76
2021/04/18 12:39:08;;;;;;;2.00;1.13;;;16.20;59.80;;;;;;6247800;23;20012;-76
2021/04/18 12:41:34;;;;;;;1.38;0.85;;;16.20;60.50;;;;;;6247609;23;20019;-76
2021/04/18 12:44:01;;;;;;;2.15;1.10;;;16.20;59.90;;;;;;6247393;23;20012;-77
2021/04/18 12:46:27;;;;;;;2.10;1.30;;;16.20;59.90;;;;;;6257786;23;20012;-76
2021/04/18 12:48:53;;;;;;;2.03;1.05;;;16.20;59.90;;;;;;6247437;23;20023;-77
2021/04/18 12:51:19;;;;;;;1.88;1.00;;;16.20;59.90;;;;;;6247081;23;20020;-77
2021/04/18 12:53:46;;;;;;;2.40;1.25;;;16.20;59.90;;;;;;6247428;23;20055;-76
2021/04/18 12:56:12;;;;;;;1.95;1.08;;;16.20;59.90;;;;;;6247449;23;20080;-77
2021/04/18 12:58:38;;;;;;;1.30;1.17;;;16.10;59.90;;;;;;6248006;23;20038;-76
2021/04/18 13:01:03;;;;;;;1.80;1.10;;;16.20;60.00;;;;;;6222919;23;20012;-77
2021/04/18 13:03:29;;;;;;;2.03;1.33;;;16.10;59.80;;;;;;6247685;23;20348;-77
2021/04/18 13:05:55;;;;;;;2.80;1.20;;;16.10;59.80;;;;;;6247342;23;20008;-78
2021/04/18 13:08:21;;;;;;;2.08;1.05;;;16.20;59.80;;;;;;6247335;23;20087;-77
2021/04/18 13:10:47;;;;;;;2.42;1.20;;;16.20;59.80;;;;;;6247244;23;20059;-76
2021/04/18 13:13:15;;;;;;;1.98;1.33;;;16.10;59.70;;;;;;6221933;23;20497;-77
2021/04/18 13:15:41;;;;;;;2.40;1.08;;;16.10;59.80;;;;;;6247263;23;20054;-76
2021/04/18 13:18:09;;;;;;;2.10;1.13;;;16.10;59.80;;;;;;6247839;23;20016;-76
2021/04/18 13:20:39;;;;;;;2.15;1.05;;;16.10;59.80;;;;;;6247086;23;20066;-76
2021/04/18 13:23:05;;;;;;;2.17;1.13;;;16.10;59.70;;;;;;6257803;23;20012;-76
2021/04/18 13:25:31;;;;;;;1.90;1.00;;;16.20;59.80;;;;;;6246643;23;20544;-76
2021/04/18 13:27:56;;;;;;;2.72;1.10;;;16.10;59.80;;;;;;6248639;23;20096;-77
2021/04/18 13:30:23;;;;;;;3.10;1.00;;;16.10;59.80;;;;;;6221657;23;20062;-76
2021/04/18 13:32:52;;;;;;;1.98;0.93;;;16.10;59.80;;;;;;6221465;23;20020;-76
2021/04/18 13:35:18;;;;;;;1.40;1.13;;;16.10;59.80;;;;;;6247173;23;20074;-77
2021/04/18 13:37:44;;;;;;;1.73;1.10;;;16.10;59.80;;;;;;6247108;23;20028;-77
2021/04/18 13:40:11;;;;;;;2.22;1.13;;;16.10;59.80;;;;;;6247773;23;20091;-76
2021/04/18 13:42:38;;;;;;;2.20;1.45;;;16.20;59.90;;;;;;6246812;23;20012;-76
2021/04/18 13:45:05;;;;;;;1.73;1.00;;;16.10;59.80;;;;;;6222827;23;20083;-76
2021/04/18 13:47:31;;;;;;;2.15;1.20;;;16.10;59.80;;;;;;6247440;23;20322;-76
2021/04/18 13:49:57;;;;;;;1.42;0.80;;;16.10;59.90;;;;;;6246917;23;20008;-76
2021/04/18 13:52:23;;;;;;;2.03;1.10;;;16.10;59.80;;;;;;6247034;23;20019;-77
2021/04/18 13:54:49;;;;;;;2.05;1.08;;;16.10;59.90;;;;;;6247218;23;20320;-76
2021/04/18 13:57:15;;;;;;;1.50;1.00;;;16.10;59.80;;;;;;6247304;23;20007;-76
2021/04/18 13:59:41;;;;;;;2.92;1.00;;;16.10;59.80;;;;;;6257868;23;20111;-76
2021/04/18 14:02:07;;;;;;;1.65;0.90;;;16.10;59.80;;;;;;6220990;23;20020;-78
2021/04/18 14:05:11;;;;;;;3.15;1.10;;;16.10;59.80;;;;;;6247895;22;20019;-77
2021/04/18 14:08:22;;;;;;;6.30;1.30;;;16.10;59.80;;;;;;6244461;23;20051;-78
2021/04/18 14:11:08;;;;;;;3.10;1.40;;;16.10;60.00;;;;;;6257832;22;20016;-77
2021/04/18 14:13:38;;;;;;;7.32;1.90;;;16.10;60.30;;;;;;6257112;22;20019;-76
2021/04/18 14:16:04;;;;;;;18.10;2.85;;;16.10;60.80;;;;;;6246730;23;20016;-76
2021/04/18 14:18:32;;;;;;;10.82;2.17;;;16.20;62.20;;;;;;6246652;23;20472;-76
2021/04/18 14:21:11;;;;;;;5.30;1.80;;;16.20;62.20;;;;;;6246224;23;20020;-76
2021/04/18 14:23:45;;;;;;;9.20;1.80;;;16.20;61.80;;;;;;6257216;23;20064;-77
2021/04/18 14:26:11;;;;;;;3.83;1.75;;;16.20;62.10;;;;;;6254021;23;20035;-73
2021/04/18 14:28:44;;;;;;;6.93;1.98;;;16.20;61.80;;;;;;6257398;22;20027;-77
2021/04/18 14:31:17;;;;;;;4.97;1.60;;;16.20;61.90;;;;;;6257597;22;20036;-75
2021/04/18 14:33:42;;;;;;;7.88;2.00;;;16.20;62.10;;;;;;6248119;23;20101;-78
2021/04/18 14:36:08;;;;;;;8.60;2.00;;;16.20;62.30;;;;;;6258798;23;20019;-75
2021/04/18 14:38:34;;;;;;;8.75;2.67;;;16.30;62.50;;;;;;6259201;22;20406;-78
2021/04/18 14:41:01;;;;;;;8.75;5.00;;;16.30;62.50;;;;;;6249723;23;20297;-74
2021/04/18 14:43:29;;;;;;;19.08;12.00;;;16.30;62.60;;;;;;6259901;22;20066;-77
2021/04/18 14:45:55;;;;;;;20.92;13.65;;;16.30;63.60;;;;;;6259642;23;20012;-75
2021/04/18 14:48:35;;;;;;;23.15;14.68;;;16.30;63.80;;;;;;6258611;23;20023;-76
2021/04/18 14:51:09;;;;;;;28.98;15.55;;;16.30;63.80;;;;;;6258100;23;20012;-81
2021/04/18 14:53:34;;;;;;;46.58;15.43;;;16.30;63.10;;;;;;6248714;23;20020;-78
2021/04/18 14:56:00;;;;;;;26.98;9.40;;;16.30;61.40;;;;;;6259417;23;20012;-76
2021/04/18 14:58:27;;;;;;;25.90;8.60;;;16.40;60.00;;;;;;6259535;22;20012;-76